Tabellarische Übersicht vom Sonntag, den 29.03.2020

Oder anderes Datum wählen:






max 5,8°C 89,0% 2,1°C 1032,7hPa 6,0°C 0,0km/h (0Bft) 0,0km/h 0° (N) ∑1,3l/m² 29,000klx ∑77,7min
min 1,7°C 50,0% -7,0°C 1023,9hPa 2,0°C 0,0km/h (0Bft) 0,0km/h 0° (N) ∑1,3l/m² 0,000klx ∑77,7min
Ø 3,9°C 73,0% -0,6°C 1027,1hPa 4,0°C 0,0km/h (0Bft) 0,0km/h 0° (N) ∑1,3l/m² 10,000klx ∑77,7min
Zeit Temperatur Luftfeuchte Taupunkt Luftdruck Windchill Windböen Windgeschwindigkeit Windrichtung Regen Helligkeit Regenzeit
23:35 1,7°C 52,2% -7,0°C 1032,7hPa 1,7°C 0,0km/h (0Bft) 0,0km/h 0,0l/m² 0,000klx 0,0min
23:30 1,7°C 53,1% -6,9°C 1032,7hPa 1,7°C 0,0km/h (0Bft) 0,0km/h 0,0l/m² 0,000klx 0,0min
23:25 1,7°C 53,4% -6,7°C 1032,7hPa 1,7°C 0,0km/h (0Bft) 0,0km/h 0,0l/m² 0,000klx 0,0min
23:20 2,0°C 52,1% -6,9°C 1032,7hPa 2,0°C 0,0km/h (0Bft) 0,0km/h 0,0l/m² 0,001klx 0,0min
23:15 2,1°C 51,9% -6,8°C 1032,6hPa 2,1°C 0,0km/h (0Bft) 0,0km/h 0,0l/m² 0,000klx 0,0min
23:10 2,2°C 51,5% -6,8°C 1032,6hPa 2,2°C 0,0km/h (0Bft) 0,0km/h 0,0l/m² 0,000klx 0,0min
23:05 2,2°C 51,2% -6,8°C 1032,6hPa 2,2°C 0,0km/h (0Bft) 0,0km/h 0,0l/m² 0,000klx 0,0min
23:00 2,2°C 51,4% -6,8°C 1032,5hPa 2,2°C 0,0km/h (0Bft) 0,0km/h 0,0l/m² 0,000klx 0,0min
22:55 2,2°C 52,7% -6,5°C 1032,5hPa 2,2°C 0,0km/h (0Bft) 0,0km/h 0,0l/m² 0,000klx 0,0min
22:50 2,4°C 51,3% -6,7°C 1032,4hPa 2,4°C 0,0km/h (0Bft) 0,0km/h 0,0l/m² 0,000klx 0,0min
22:45 2,5°C 50,9% -6,6°C 1032,4hPa 2,5°C 0,0km/h (0Bft) 0,0km/h 0,0l/m² 0,000klx 0,0min
22:40 2,6°C 50,5% -6,6°C 1032,4hPa 2,6°C 0,0km/h (0Bft) 0,0km/h 0,0l/m² 0,000klx 0,0min
22:35 2,7°C 51,5% -6,4°C 1032,4hPa 2,7°C 0,0km/h (0Bft) 0,0km/h 0,0l/m² 0,000klx 0,0min
22:30 2,7°C 52,3% -6,2°C 1032,4hPa 2,7°C 0,0km/h (0Bft) 0,0km/h 0,0l/m² 0,000klx 0,0min
22:25 2,7°C 52,4% -6,0°C 1032,3hPa 2,7°C 0,0km/h (0Bft) 0,0km/h 0,0l/m² 0,000klx 0,0min
22:20 3,0°C 50,2% -6,4°C 1032,3hPa 3,0°C 0,0km/h (0Bft) 0,0km/h 0,0l/m² 0,000klx 0,0min
22:15 3,1°C 50,8% -6,1°C 1032,3hPa 3,1°C 0,0km/h (0Bft) 0,0km/h 0,0l/m² 0,000klx 0,0min
22:10 3,1°C 53,0% -5,5°C 1032,2hPa 3,1°C 0,0km/h (0Bft) 0,0km/h 0,0l/m² 0,000klx 0,0min
22:05 3,2°C 55,4% -4,9°C 1032,2hPa 3,2°C 0,0km/h (0Bft) 0,0km/h 0,0l/m² 0,000klx 0,0min
22:00 3,2°C 55,5% -4,8°C 1032,1hPa 3,2°C 0,0km/h (0Bft) 0,0km/h 0,0l/m² 0,000klx 0,0min
21:55 3,4°C 53,6% -5,1°C 1032,0hPa 3,4°C 0,0km/h (0Bft) 0,0km/h 0,0l/m² 0,000klx 0,0min
21:50 3,6°C 51,9% -5,4°C 1031,9hPa 3,6°C 0,0km/h (0Bft) 0,0km/h 0,0l/m² 0,000klx 0,0min
21:45 3,6°C 52,3% -5,2°C 1031,9hPa 3,6°C 0,0km/h (0Bft) 0,0km/h 0,0l/m² 0,000klx 0,0min
21:40 3,7°C 52,3% -5,2°C 1031,8hPa 3,7°C 0,0km/h (0Bft) 0,0km/h 0,0l/m² 0,000klx 0,0min
21:35 3,8°C 52,4% -5,1°C 1031,8hPa 3,8°C 0,0km/h (0Bft) 0,0km/h 0,0l/m² 0,000klx 0,0min
21:30 3,9°C 52,0% -5,1°C 1031,7hPa 3,9°C 0,0km/h (0Bft) 0,0km/h 0,0l/m² 0,000klx 0,0min
21:25 4,0°C 52,3% -4,9°C 1031,7hPa 4,0°C 0,0km/h (0Bft) 0,0km/h 0,0l/m² 0,000klx 0,0min
21:20 4,1°C 52,6% -4,8°C 1031,6hPa 4,1°C 0,0km/h (0Bft) 0,0km/h 0,0l/m² 0,000klx 0,0min
21:15 4,1°C 54,3% -4,3°C 1031,6hPa 4,1°C 0,0km/h (0Bft) 0,0km/h 0,0l/m² 0,000klx 0,0min
21:10 4,2°C 56,4% -3,7°C 1031,5hPa 4,2°C 0,0km/h (0Bft) 0,0km/h 0,0l/m² 0,000klx 0,0min
21:05 4,2°C 59,2% -3,0°C 1031,4hPa 4,2°C 0,0km/h (0Bft) 0,0km/h 0,0l/m² 0,000klx 0,0min
21:00 4,3°C 60,2% -2,7°C 1031,4hPa 4,3°C 0,0km/h (0Bft) 0,0km/h 0,0l/m² 0,000klx 0,0min
20:55 4,4°C 61,0% -2,5°C 1031,3hPa 4,4°C 0,0km/h (0Bft) 0,0km/h 0,0l/m² 0,000klx 0,0min
20:50 4,4°C 61,2% -2,5°C 1031,3hPa 4,4°C 0,0km/h (0Bft) 0,0km/h 0,0l/m² 0,000klx 0,0min
20:45 4,4°C 61,2% -2,5°C 1031,2hPa 4,4°C 0,0km/h (0Bft) 0,0km/h 0,0l/m² 0,001klx 0,0min
20:40 4,4°C 60,7% -2,5°C 1031,1hPa 4,4°C 0,0km/h (0Bft) 0,0km/h 0,0l/m² 0,001klx 0,0min
20:35 4,5°C 59,2% -2,8°C 1031,0hPa 4,5°C 0,0km/h (0Bft) 0,0km/h 0,0l/m² 0,002klx 0,0min
20:30 4,4°C 60,7% -2,5°C 1030,9hPa 4,4°C 0,0km/h (0Bft) 0,0km/h 0,0l/m² 0,004klx 0,0min
20:25 4,5°C 60,3% -2,6°C 1030,9hPa 4,5°C 0,0km/h (0Bft) 0,0km/h 0,0l/m² 0,008klx 0,0min
20:20 4,5°C 59,8% -2,6°C 1030,8hPa 4,5°C 0,0km/h (0Bft) 0,0km/h 0,0l/m² 0,017klx 0,0min
20:15 4,5°C 59,5% -2,7°C 1030,7hPa 4,5°C 0,0km/h (0Bft) 0,0km/h 0,0l/m² 0,040klx 0,0min
20:10 4,5°C 60,6% -2,5°C 1030,6hPa 4,5°C 0,0km/h (0Bft) 0,0km/h 0,0l/m² 0,066klx 0,0min
20:05 4,5°C 61,7% -2,2°C 1030,5hPa 4,5°C 0,0km/h (0Bft) 0,0km/h 0,0l/m² 0,152klx 0,0min
20:00 4,5°C 62,8% -2,0°C 1030,4hPa 4,5°C 0,0km/h (0Bft) 0,0km/h 0,0l/m² 0,333klx 0,0min
19:55 4,6°C 63,5% -1,8°C 1030,3hPa 4,6°C 0,0km/h (0Bft) 0,0km/h 0,0l/m² 0,538klx 0,0min
19:50 4,6°C 63,5% -1,8°C 1030,3hPa 4,6°C 0,0km/h (0Bft) 0,0km/h 0,0l/m² 0,681klx 0,0min
19:45 4,6°C 63,2% -1,8°C 1030,2hPa 4,6°C 0,0km/h (0Bft) 0,0km/h 0,0l/m² 0,657klx 0,0min
19:40 4,6°C 63,5% -1,7°C 1030,2hPa 4,6°C 0,0km/h (0Bft) 0,0km/h 0,0l/m² 0,738klx 0,0min
19:35 4,6°C 64,9% -1,5°C 1030,1hPa 4,6°C 0,0km/h (0Bft) 0,0km/h 0,0l/m² 0,921klx 0,0min
19:30 4,6°C 64,4% -1,5°C 1030,1hPa 4,6°C 0,0km/h (0Bft) 0,0km/h 0,0l/m² 1,006klx 0,0min
19:25 4,7°C 63,8% -1,6°C 1030,0hPa 4,7°C 0,0km/h (0Bft) 0,0km/h 0,0l/m² 0,998klx 0,0min
19:20 4,7°C 63,7% -1,6°C 1029,9hPa 4,7°C 0,0km/h (0Bft) 0,0km/h 0,0l/m² 1,250klx 0,0min
19:15 4,7°C 65,0% -1,4°C 1029,8hPa 4,7°C 0,0km/h (0Bft) 0,0km/h 0,0l/m² 1,648klx 0,0min
19:10 4,6°C 66,3% -1,1°C 1029,8hPa 4,6°C 0,0km/h (0Bft) 0,0km/h 0,0l/m² 1,882klx 0,0min
19:05 4,6°C 66,0% -1,2°C 1029,7hPa 4,6°C 0,0km/h (0Bft) 0,0km/h 0,0l/m² 2,095klx 0,0min
19:00 4,7°C 66,6% -1,0°C 1029,6hPa 4,7°C 0,0km/h (0Bft) 0,0km/h 0,0l/m² 2,261klx 0,0min
18:55 4,7°C 66,2% -1,1°C 1029,5hPa 4,7°C 0,0km/h (0Bft) 0,0km/h 0,0l/m² 2,548klx 0,0min
18:50 4,7°C 65,9% -1,2°C 1029,4hPa 4,7°C 0,0km/h (0Bft) 0,0km/h 0,0l/m² 2,436klx 0,0min
18:45 4,6°C 66,4% -1,1°C 1029,3hPa 4,6°C 0,0km/h (0Bft) 0,0km/h 0,0l/m² 3,121klx 0,0min
18:40 4,6°C 67,6% -0,9°C 1029,2hPa 4,6°C 0,0km/h (0Bft) 0,0km/h 0,0l/m² 3,286klx 0,0min
18:35 4,6°C 68,3% -0,7°C 1029,2hPa 4,6°C 0,0km/h (0Bft) 0,0km/h 0,0l/m² 3,828klx 0,0min
18:30 4,6°C 68,5% -0,7°C 1029,1hPa 4,6°C 0,0km/h (0Bft) 0,0km/h 0,0l/m² 4,118klx 0,0min
18:25 4,6°C 68,7% -0,7°C 1029,1hPa 4,6°C 0,0km/h (0Bft) 0,0km/h 0,0l/m² 4,200klx 0,0min
18:20 4,6°C 69,9% -0,5°C 1029,1hPa 4,6°C 0,0km/h (0Bft) 0,0km/h 0,0l/m² 4,070klx 0,0min
18:15 4,6°C 70,5% -0,3°C 1029,1hPa 4,6°C 0,0km/h (0Bft) 0,0km/h 0,0l/m² 4,313klx 0,0min
18:10 4,6°C 71,5% -0,2°C 1029,0hPa 4,6°C 0,0km/h (0Bft) 0,0km/h 0,0l/m² 5,110klx 0,0min
18:05 4,5°C 76,0% 0,6°C 1028,9hPa 4,5°C 0,0km/h (0Bft) 0,0km/h 0,0l/m² 5,728klx 0,0min
18:00 4,4°C 76,0% 0,5°C 1028,9hPa 4,4°C 0,0km/h (0Bft) 0,0km/h 0,0l/m² 6,382klx 0,0min
17:55 4,4°C 75,4% 0,4°C 1028,9hPa 4,4°C 0,0km/h (0Bft) 0,0km/h 0,0l/m² 6,874klx 0,0min
17:50 4,3°C 76,7% 0,5°C 1028,8hPa 4,3°C 0,0km/h (0Bft) 0,0km/h 0,0l/m² 8,123klx 0,0min
17:45 4,2°C 78,1% 0,7°C 1028,8hPa 4,2°C 0,0km/h (0Bft) 0,0km/h 0,0l/m² 7,777klx 0,0min
17:40 4,0°C 85,1% 1,7°C 1028,8hPa 4,0°C 0,0km/h (0Bft) 0,0km/h 0,0l/m² 8,597klx 0,0min
17:35 4,0°C 87,5% 2,1°C 1028,8hPa 4,0°C 0,0km/h (0Bft) 0,0km/h 0,0l/m² 12,808klx 0,0min
17:30 3,7°C 88,1% 2,0°C 1028,7hPa 3,7°C 0,0km/h (0Bft) 0,0km/h 0,0l/m² 14,767klx 0,0min
17:25 3,7°C 88,6% 1,9°C 1028,7hPa 3,7°C 0,0km/h (0Bft) 0,0km/h 0,0l/m² 9,770klx 0,0min
17:20 3,7°C 88,2% 1,9°C 1028,6hPa 3,7°C 0,0km/h (0Bft) 0,0km/h 0,0l/m² 8,068klx 0,0min
17:15 3,6°C 88,0% 1,8°C 1028,6hPa 3,6°C 0,0km/h (0Bft) 0,0km/h 0,0l/m² 11,586klx 0,7min
17:10 3,5°C 87,4% 1,6°C 1028,6hPa 3,5°C 0,0km/h (0Bft) 0,0km/h 0,0l/m² 13,356klx 0,3min
17:05 3,4°C 87,7% 1,5°C 1028,6hPa 3,4°C 0,0km/h (0Bft) 0,0km/h 0,0l/m² 15,234klx 1,6min
17:00 3,3°C 87,8% 1,5°C 1028,6hPa 3,3°C 0,0km/h (0Bft) 0,0km/h 0,0l/m² 15,776klx 0,0min
16:55 3,2°C 88,5% 1,5°C 1028,6hPa 3,2°C 0,0km/h (0Bft) 0,0km/h 0,0l/m² 18,963klx 1,2min
16:50 3,2°C 88,9% 1,5°C 1028,6hPa 3,2°C 0,0km/h (0Bft) 0,0km/h 0,0l/m² 15,659klx 3,3min
16:45 3,1°C 89,0% 1,5°C 1028,6hPa 3,1°C 0,0km/h (0Bft) 0,0km/h 0,0l/m² 13,702klx 2,0min
16:40 3,1°C 89,0% 1,4°C 1028,5hPa 3,1°C 0,0km/h (0Bft) 0,0km/h 0,0l/m² 10,657klx 4,9min
16:35 3,0°C 88,6% 1,3°C 1028,6hPa 3,0°C 0,0km/h (0Bft) 0,0km/h 0,1l/m² 10,964klx 4,7min
16:30 3,0°C 88,4% 1,2°C 1028,5hPa 3,0°C 0,0km/h (0Bft) 0,0km/h 0,0l/m² 12,631klx 1,6min
16:25 2,9°C 88,4% 1,2°C 1028,5hPa 2,9°C 0,0km/h (0Bft) 0,0km/h 0,1l/m² 16,049klx 3,2min
16:20 2,9°C 88,3% 1,2°C 1028,5hPa 2,9°C 0,0km/h (0Bft) 0,0km/h 0,0l/m² 13,231klx 2,4min
16:15 3,0°C 88,2% 1,2°C 1028,5hPa 3,0°C 0,0km/h (0Bft) 0,0km/h 0,0l/m² 12,828klx 2,9min
16:10 3,0°C 88,1% 1,2°C 1028,4hPa 3,0°C 0,0km/h (0Bft) 0,0km/h 0,0l/m² 14,813klx 0,0min
16:05 3,1°C 87,9% 1,3°C 1028,3hPa 3,1°C 0,0km/h (0Bft) 0,0km/h 0,0l/m² 15,845klx 0,7min
16:00 3,0°C 87,4% 1,1°C 1028,3hPa 3,0°C 0,0km/h (0Bft) 0,0km/h 0,0l/m² 15,972klx 0,5min
15:55 2,9°C 87,7% 1,1°C 1028,3hPa 2,9°C 0,0km/h (0Bft) 0,0km/h 0,0l/m² 17,324klx 0,2min
15:50 2,8°C 88,2% 1,0°C 1028,2hPa 2,8°C 0,0km/h (0Bft) 0,0km/h 0,0l/m² 17,228klx 0,7min
15:45 2,6°C 88,2% 0,9°C 1028,2hPa 2,6°C 0,0km/h (0Bft) 0,0km/h 0,0l/m² 17,906klx 5,0min
15:40 2,7°C 88,0% 0,9°C 1028,3hPa 2,7°C 0,0km/h (0Bft) 0,0km/h 0,0l/m² 18,455klx 2,4min
15:35 2,7°C 87,9% 0,9°C 1028,3hPa 2,7°C 0,0km/h (0Bft) 0,0km/h 0,0l/m² 16,376klx 3,5min
15:30 2,7°C 87,2% 0,8°C 1028,3hPa 2,7°C 0,0km/h (0Bft) 0,0km/h 0,0l/m² 18,500klx 0,3min
15:25 2,9°C 86,4% 0,9°C 1028,1hPa 2,9°C 0,0km/h (0Bft) 0,0km/h 0,0l/m² 19,484klx 0,9min
15:20 3,1°C 85,7% 0,9°C 1028,1hPa 3,1°C 0,0km/h (0Bft) 0,0km/h 0,0l/m² 18,567klx 0,9min
15:15 3,2°C 85,6% 1,0°C 1028,1hPa 3,2°C 0,0km/h (0Bft) 0,0km/h 0,0l/m² 21,549klx 0,1min
15:10 3,3°C 85,2% 1,1°C 1027,9hPa 3,3°C 0,0km/h (0Bft) 0,0km/h 0,0l/m² 25,387klx 0,0min
15:05 3,3°C 84,7% 1,0°C 1027,9hPa 3,3°C 0,0km/h (0Bft) 0,0km/h 0,0l/m² 27,634klx 0,0min
15:00 3,3°C 85,4% 1,1°C 1027,8hPa 3,3°C 0,0km/h (0Bft) 0,0km/h 0,0l/m² 18,170klx 0,3min
14:55 3,4°C 85,5% 1,2°C 1027,7hPa 3,4°C 0,0km/h (0Bft) 0,0km/h 0,0l/m² 17,786klx 1,1min
14:50 3,4°C 84,6% 1,1°C 1027,7hPa 3,4°C 0,0km/h (0Bft) 0,0km/h 0,0l/m² 22,680klx 0,4min
14:45 3,5°C 84,8% 1,2°C 1027,7hPa 3,5°C 0,0km/h (0Bft) 0,0km/h 0,0l/m² 29,003klx 0,3min
14:40 3,4°C 85,4% 1,1°C 1027,6hPa 3,4°C 0,0km/h (0Bft) 0,0km/h 0,0l/m² 21,108klx 1,3min
14:35 3,4°C 86,0% 1,2°C 1027,6hPa 3,4°C 0,0km/h (0Bft) 0,0km/h 0,0l/m² 17,145klx 2,3min
14:30 3,4°C 85,7% 1,2°C 1027,6hPa 3,4°C 0,0km/h (0Bft) 0,0km/h 0,1l/m² 11,683klx 2,9min
14:25 3,4°C 85,3% 1,2°C 1027,6hPa 3,4°C 0,0km/h (0Bft) 0,0km/h 0,0l/m² 13,109klx 4,3min
14:20 3,4°C 84,7% 1,1°C 1027,5hPa 3,4°C 0,0km/h (0Bft) 0,0km/h 0,0l/m² 12,618klx 0,7min
14:15 3,5°C 84,5% 1,2°C 1027,4hPa 3,5°C 0,0km/h (0Bft) 0,0km/h 0,0l/m² 13,042klx 0,7min
14:10 3,6°C 84,5% 1,2°C 1027,4hPa 3,6°C 0,0km/h (0Bft) 0,0km/h 0,0l/m² 13,472klx 0,8min
14:05 3,5°C 84,5% 1,2°C 1027,4hPa 3,5°C 0,0km/h (0Bft) 0,0km/h 0,0l/m² 13,389klx 0,0min
14:00 3,4°C 84,4% 1,0°C 1027,3hPa 3,4°C 0,0km/h (0Bft) 0,0km/h 0,0l/m² 13,396klx 0,0min
13:55 3,3°C 85,7% 1,1°C 1027,3hPa 3,3°C 0,0km/h (0Bft) 0,0km/h 0,0l/m² 17,084klx 0,1min
13:50 3,2°C 86,4% 1,2°C 1027,4hPa 3,2°C 0,0km/h (0Bft) 0,0km/h 0,0l/m² 12,040klx 0,6min
13:45 3,2°C 87,0% 1,2°C 1027,3hPa 3,2°C 0,0km/h (0Bft) 0,0km/h 0,0l/m² 11,340klx 0,0min
13:40 3,2°C 87,0% 1,2°C 1027,4hPa 3,2°C 0,0km/h (0Bft) 0,0km/h 0,0l/m² 13,544klx 0,0min
13:35 3,1°C 86,9% 1,1°C 1027,3hPa 3,1°C 0,0km/h (0Bft) 0,0km/h 0,0l/m² 14,422klx 0,0min
13:30 3,2°C 86,5% 1,2°C 1027,2hPa 3,2°C 0,0km/h (0Bft) 0,0km/h 0,1l/m² 12,778klx 0,0min
13:25 3,5°C 85,9% 1,4°C 1027,2hPa 3,5°C 0,0km/h (0Bft) 0,0km/h 0,1l/m² 11,947klx 0,7min
13:20 3,6°C 84,8% 1,3°C 1027,1hPa 3,6°C 0,0km/h (0Bft) 0,0km/h 0,0l/m² 16,828klx 0,3min
13:15 3,6°C 84,9% 1,3°C 1027,1hPa 3,6°C 0,0km/h (0Bft) 0,0km/h 0,0l/m² 23,402klx 0,0min
13:10 3,5°C 84,8% 1,2°C 1027,1hPa 3,5°C 0,0km/h (0Bft) 0,0km/h 0,0l/m² 15,045klx 1,5min
13:05 3,5°C 84,4% 1,2°C 1027,1hPa 3,5°C 0,0km/h (0Bft) 0,0km/h 0,0l/m² 17,958klx 4,1min
13:00 3,6°C 84,3% 1,2°C 1027,0hPa 3,6°C 0,0km/h (0Bft) 0,0km/h 0,0l/m² 17,570klx 2,9min
12:55 3,7°C 83,8% 1,2°C 1027,0hPa 3,7°C 0,0km/h (0Bft) 0,0km/h 0,0l/m² 17,034klx 0,0min
12:50 3,8°C 83,1% 1,2°C 1026,9hPa 3,8°C 0,0km/h (0Bft) 0,0km/h 0,0l/m² 12,481klx 0,0min
12:45 4,0°C 81,9% 1,2°C 1026,8hPa 4,0°C 0,0km/h (0Bft) 0,0km/h 0,0l/m² 12,179klx 0,9min
12:40 4,0°C 81,3% 1,1°C 1026,8hPa 4,0°C 0,0km/h (0Bft) 0,0km/h 0,0l/m² 19,267klx 3,7min
12:35 4,0°C 80,9% 1,0°C 1026,8hPa 4,0°C 0,0km/h (0Bft) 0,0km/h 0,0l/m² 18,694klx 1,9min
12:30 3,9°C 79,8% 0,7°C 1026,7hPa 3,9°C 0,0km/h (0Bft) 0,0km/h 0,0l/m² 15,121klx 1,3min
12:25 4,0°C 79,5% 0,8°C 1026,7hPa 4,0°C 0,0km/h (0Bft) 0,0km/h 0,0l/m² 16,788klx 0,3min
12:20 4,0°C 79,0% 0,7°C 1026,7hPa 4,0°C 0,0km/h (0Bft) 0,0km/h 0,0l/m² 14,652klx 0,4min
12:15 4,1°C 77,0% 0,5°C 1026,7hPa 4,1°C 0,0km/h (0Bft) 0,0km/h 0,0l/m² 13,143klx 0,0min
12:10 4,3°C 75,9% 0,4°C 1026,6hPa 4,3°C 0,0km/h (0Bft) 0,0km/h 0,0l/m² 14,890klx 0,0min
12:05 4,4°C 75,4% 0,5°C 1026,6hPa 4,4°C 0,0km/h (0Bft) 0,0km/h 0,0l/m² 12,175klx 0,0min
12:00 4,4°C 75,7% 0,5°C 1026,5hPa 4,4°C 0,0km/h (0Bft) 0,0km/h 0,0l/m² 13,344klx 0,0min
11:55 4,3°C 75,9% 0,4°C 1026,4hPa 4,3°C 0,0km/h (0Bft) 0,0km/h 0,0l/m² 12,261klx 0,3min
11:50 4,3°C 75,4% 0,3°C 1026,4hPa 4,3°C 0,0km/h (0Bft) 0,0km/h 0,0l/m² 8,729klx 0,0min
11:45 4,3°C 74,2% 0,1°C 1026,3hPa 4,3°C 0,0km/h (0Bft) 0,0km/h 0,0l/m² 10,990klx 0,0min
11:40 4,5°C 72,6% 0,0°C 1026,3hPa 4,5°C 0,0km/h (0Bft) 0,0km/h 0,0l/m² 9,733klx 0,0min
11:35 4,7°C 71,2% -0,1°C 1026,3hPa 4,7°C 0,0km/h (0Bft) 0,0km/h 0,0l/m² 11,123klx 0,0min
11:30 4,8°C 69,5% -0,4°C 1026,3hPa 4,8°C 0,0km/h (0Bft) 0,0km/h 0,0l/m² 9,754klx 0,0min
11:25 4,9°C 67,7% -0,6°C 1026,2hPa 4,9°C 0,0km/h (0Bft) 0,0km/h 0,0l/m² 7,593klx 0,0min
11:20 5,0°C 65,5% -0,9°C 1026,1hPa 5,0°C 0,0km/h (0Bft) 0,0km/h 0,0l/m² 6,495klx 0,0min
11:15 5,2°C 64,7% -0,9°C 1026,1hPa 5,2°C 0,0km/h (0Bft) 0,0km/h 0,0l/m² 9,124klx 0,0min
11:10 5,2°C 64,4% -1,0°C 1026,0hPa 5,2°C 0,0km/h (0Bft) 0,0km/h 0,0l/m² 13,529klx 0,0min
11:05 5,2°C 64,3% -1,0°C 1025,9hPa 5,2°C 0,0km/h (0Bft) 0,0km/h 0,0l/m² 8,530klx 0,0min
11:00 5,2°C 63,6% -1,2°C 1025,8hPa 5,2°C 0,0km/h (0Bft) 0,0km/h 0,0l/m² 3,912klx 0,0min
10:55 5,3°C 63,3% -1,1°C 1025,8hPa 5,3°C 0,0km/h (0Bft) 0,0km/h 0,0l/m² 3,681klx 0,0min
10:50 5,5°C 63,0% -1,0°C 1025,7hPa 5,5°C 0,0km/h (0Bft) 0,0km/h 0,0l/m² 5,023klx 0,0min
10:45 5,5°C 62,5% -1,1°C 1025,6hPa 5,5°C 0,0km/h (0Bft) 0,0km/h 0,0l/m² 9,704klx 0,0min
10:40 5,5°C 62,7% -1,1°C 1025,6hPa 5,5°C 0,0km/h (0Bft) 0,0km/h 0,0l/m² 14,138klx 0,0min
10:35 5,5°C 62,6% -1,1°C 1025,6hPa 5,5°C 0,0km/h (0Bft) 0,0km/h 0,0l/m² 17,193klx 0,0min
10:30 5,4°C 63,4% -1,0°C 1025,6hPa 5,4°C 0,0km/h (0Bft) 0,0km/h 0,0l/m² 18,718klx 0,0min
10:25 5,3°C 64,5% -0,9°C 1025,6hPa 5,3°C 0,0km/h (0Bft) 0,0km/h 0,0l/m² 14,135klx 0,0min
10:20 5,2°C 65,2% -0,8°C 1025,6hPa 5,2°C 0,0km/h (0Bft) 0,0km/h 0,0l/m² 9,425klx 0,0min
10:15 5,2°C 65,4% -0,8°C 1025,6hPa 5,2°C 0,0km/h (0Bft) 0,0km/h 0,0l/m² 8,131klx 0,0min
10:10 5,2°C 66,0% -0,6°C 1025,5hPa 5,2°C 0,0km/h (0Bft) 0,0km/h 0,0l/m² 10,919klx 0,0min
10:05 5,1°C 67,2% -0,5°C 1025,5hPa 5,1°C 0,0km/h (0Bft) 0,0km/h 0,0l/m² 9,948klx 0,0min
10:00 5,2°C 67,3% -0,4°C 1025,5hPa 5,2°C 0,0km/h (0Bft) 0,0km/h 0,0l/m² 7,668klx 0,0min
09:55 5,1°C 67,8% -0,4°C 1025,4hPa 5,1°C 0,0km/h (0Bft) 0,0km/h 0,0l/m² 14,380klx 0,0min
09:50 5,1°C 67,8% -0,4°C 1025,4hPa 5,1°C 0,0km/h (0Bft) 0,0km/h 0,0l/m² 16,763klx 0,0min
09:45 4,9°C 68,8% -0,4°C 1025,3hPa 4,9°C 0,0km/h (0Bft) 0,0km/h 0,0l/m² 17,064klx 0,0min
09:40 4,7°C 70,6% -0,2°C 1025,3hPa 4,7°C 0,0km/h (0Bft) 0,0km/h 0,0l/m² 12,298klx 0,0min
09:35 4,7°C 71,7% 0,0°C 1025,3hPa 4,7°C 0,0km/h (0Bft) 0,0km/h 0,0l/m² 8,129klx 0,0min
09:30 4,6°C 72,5% 0,0°C 1025,3hPa 4,6°C 0,0km/h (0Bft) 0,0km/h 0,0l/m² 9,929klx 0,0min
09:25 4,4°C 73,4% 0,1°C 1025,3hPa 4,4°C 0,0km/h (0Bft) 0,0km/h 0,0l/m² 11,410klx 0,0min
09:20 4,3°C 74,6% 0,1°C 1025,3hPa 4,3°C 0,0km/h (0Bft) 0,0km/h 0,0l/m² 12,775klx 0,0min
09:15 4,1°C 75,1% 0,1°C 1025,2hPa 4,1°C 0,0km/h (0Bft) 0,0km/h 0,0l/m² 10,432klx 0,0min
09:10 4,1°C 75,7% 0,1°C 1025,2hPa 4,1°C 0,0km/h (0Bft) 0,0km/h 0,0l/m² 10,659klx 0,0min
09:05 4,0°C 76,0% 0,1°C 1025,1hPa 4,0°C 0,0km/h (0Bft) 0,0km/h 0,0l/m² 11,646klx 0,0min
09:00 3,9°C 76,2% 0,1°C 1025,1hPa 3,9°C 0,0km/h (0Bft) 0,0km/h 0,0l/m² 11,320klx 0,0min
08:55 3,8°C 77,1% 0,1°C 1025,0hPa 3,8°C 0,0km/h (0Bft) 0,0km/h 0,0l/m² 10,640klx 0,0min
08:50 3,6°C 77,2% 0,0°C 1024,9hPa 3,6°C 0,0km/h (0Bft) 0,0km/h 0,0l/m² 10,088klx 0,0min
08:45 3,5°C 77,5% -0,1°C 1024,9hPa 3,5°C 0,0km/h (0Bft) 0,0km/h 0,0l/m² 8,479klx 0,0min
08:40 3,4°C 77,9% -0,1°C 1024,8hPa 3,4°C 0,0km/h (0Bft) 0,0km/h 0,0l/m² 6,674klx 0,0min
08:35 3,4°C 78,1% -0,1°C 1024,7hPa 3,4°C 0,0km/h (0Bft) 0,0km/h 0,0l/m² 5,855klx 0,0min
08:30 3,4°C 78,0% -0,1°C 1024,7hPa 3,4°C 0,0km/h (0Bft) 0,0km/h 0,0l/m² 5,480klx 0,0min
08:25 3,3°C 78,3% -0,1°C 1024,6hPa 3,3°C 0,0km/h (0Bft) 0,0km/h 0,0l/m² 4,899klx 0,0min
08:20 3,4°C 78,2% -0,1°C 1024,7hPa 3,4°C 0,0km/h (0Bft) 0,0km/h 0,0l/m² 4,420klx 0,0min
08:15 3,4°C 78,0% -0,1°C 1024,6hPa 3,4°C 0,0km/h (0Bft) 0,0km/h 0,0l/m² 3,891klx 0,0min
08:10 3,3°C 78,5% 0,0°C 1024,6hPa 3,3°C 0,0km/h (0Bft) 0,0km/h 0,0l/m² 3,628klx 0,0min
08:05 3,3°C 78,5% -0,1°C 1024,5hPa 3,3°C 0,0km/h (0Bft) 0,0km/h 0,0l/m² 3,418klx 0,0min
08:00 3,3°C 78,5% -0,1°C 1024,4hPa 3,3°C 0,0km/h (0Bft) 0,0km/h 0,0l/m² 3,098klx 0,0min
07:55 3,4°C 78,8% 0,0°C 1024,4hPa 3,4°C 0,0km/h (0Bft) 0,0km/h 0,0l/m² 2,810klx 0,0min
07:50 3,3°C 79,4% 0,1°C 1024,3hPa 3,3°C 0,0km/h (0Bft) 0,0km/h 0,0l/m² 2,586klx 0,0min
07:45 3,3°C 79,1% 0,0°C 1024,3hPa 3,3°C 0,0km/h (0Bft) 0,0km/h 0,0l/m² 2,361klx 0,0min
07:40 3,3°C 79,2% 0,0°C 1024,3hPa 3,3°C 0,0km/h (0Bft) 0,0km/h 0,0l/m² 1,939klx 0,0min
07:35 3,4°C 79,0% 0,0°C 1024,2hPa 3,4°C 0,0km/h (0Bft) 0,0km/h 0,0l/m² 1,544klx 0,0min
07:30 3,4°C 78,6% 0,1°C 1024,2hPa 3,4°C 0,0km/h (0Bft) 0,0km/h 0,0l/m² 1,247klx 0,0min
07:25 3,5°C 78,5% 0,1°C 1024,2hPa 3,5°C 0,0km/h (0Bft) 0,0km/h 0,0l/m² 0,948klx 0,0min
07:20 3,5°C 78,3% 0,1°C 1024,2hPa 3,5°C 0,0km/h (0Bft) 0,0km/h 0,0l/m² 0,670klx 0,0min
07:15 3,6°C 78,1% 0,1°C 1024,2hPa 3,6°C 0,0km/h (0Bft) 0,0km/h 0,0l/m² 0,422klx 0,0min
07:10 3,7°C 77,7% 0,1°C 1024,2hPa 3,7°C 0,0km/h (0Bft) 0,0km/h 0,0l/m² 0,244klx 0,0min
07:05 3,7°C 77,7% 0,2°C 1024,2hPa 3,7°C 0,0km/h (0Bft) 0,0km/h 0,0l/m² 0,126klx 0,0min
07:00 3,8°C 77,2% 0,2°C 1024,1hPa 3,8°C 0,0km/h (0Bft) 0,0km/h 0,0l/m² 0,059klx 0,0min
06:55 3,9°C 77,0% 0,2°C 1024,1hPa 3,9°C 0,0km/h (0Bft) 0,0km/h 0,0l/m² 0,025klx 0,0min
06:50 4,0°C 77,0% 0,3°C 1024,0hPa 4,0°C 0,0km/h (0Bft) 0,0km/h 0,0l/m² 0,010klx 0,0min
06:45 4,0°C 77,0% 0,4°C 1024,0hPa 4,0°C 0,0km/h (0Bft) 0,0km/h 0,0l/m² 0,004klx 0,0min
06:40 4,1°C 77,1% 0,4°C 1024,0hPa 4,1°C 0,0km/h (0Bft) 0,0km/h 0,0l/m² 0,002klx 0,0min
06:35 4,0°C 77,3% 0,4°C 1024,0hPa 4,0°C 0,0km/h (0Bft) 0,0km/h 0,0l/m² 0,001klx 0,0min
06:30 4,0°C 77,0% 0,4°C 1024,0hPa 4,0°C 0,0km/h (0Bft) 0,0km/h 0,0l/m² 0,000klx 0,0min
06:25 3,9°C 77,2% 0,3°C 1023,9hPa 3,9°C 0,0km/h (0Bft) 0,0km/h 0,0l/m² 0,000klx 0,0min
06:20 3,9°C 77,2% 0,2°C 1023,9hPa 3,9°C 0,0km/h (0Bft) 0,0km/h 0,0l/m² 0,000klx 0,0min
06:15 3,9°C 77,0% 0,2°C 1023,9hPa 3,9°C 0,0km/h (0Bft) 0,0km/h 0,0l/m² 0,000klx 0,0min
06:10 3,8°C 76,8% 0,1°C 1024,0hPa 3,8°C 0,0km/h (0Bft) 0,0km/h 0,0l/m² 0,000klx 0,0min
06:05 3,8°C 76,7% 0,1°C 1024,0hPa 3,8°C 0,0km/h (0Bft) 0,0km/h 0,0l/m² 0,000klx 0,0min
06:00 3,8°C 76,6% 0,1°C 1024,0hPa 3,8°C 0,0km/h (0Bft) 0,0km/h 0,0l/m² 0,000klx 0,0min
05:55 3,8°C 76,4% 0,0°C 1024,0hPa 3,8°C 0,0km/h (0Bft) 0,0km/h 0,0l/m² 0,000klx 0,0min
05:50 3,8°C 76,2% 0,0°C 1024,0hPa 3,8°C 0,0km/h (0Bft) 0,0km/h 0,0l/m² 0,000klx 0,0min
05:45 3,8°C 76,1% -0,1°C 1024,0hPa 3,8°C 0,0km/h (0Bft) 0,0km/h 0,0l/m² 0,000klx 0,0min
05:40 3,7°C 76,0% -0,1°C 1024,0hPa 3,7°C 0,0km/h (0Bft) 0,0km/h 0,0l/m² 0,000klx 0,0min
05:35 3,7°C 75,8% -0,2°C 1024,0hPa 3,7°C 0,0km/h (0Bft) 0,0km/h 0,0l/m² 0,000klx 0,0min
05:30 3,8°C 75,5% -0,2°C 1024,0hPa 3,8°C 0,0km/h (0Bft) 0,0km/h 0,0l/m² 0,000klx 0,0min
05:25 3,8°C 75,5% -0,2°C 1024,0hPa 3,8°C 0,0km/h (0Bft) 0,0km/h 0,0l/m² 0,000klx 0,0min
05:20 3,8°C 75,1% -0,2°C 1024,0hPa 3,8°C 0,0km/h (0Bft) 0,0km/h 0,0l/m² 0,000klx 0,0min
05:15 3,7°C 75,0% -0,3°C 1024,0hPa 3,7°C 0,0km/h (0Bft) 0,0km/h 0,0l/m² 0,000klx 0,0min
05:10 3,7°C 74,7% -0,4°C 1024,0hPa 3,7°C 0,0km/h (0Bft) 0,0km/h 0,0l/m² 0,000klx 0,0min
05:05 3,7°C 74,7% -0,4°C 1024,0hPa 3,7°C 0,0km/h (0Bft) 0,0km/h 0,0l/m² 0,000klx 0,0min
05:00 3,8°C 74,4% -0,4°C 1024,0hPa 3,8°C 0,0km/h (0Bft) 0,0km/h 0,0l/m² 0,000klx 0,0min
04:55 3,8°C 74,3% -0,4°C 1024,0hPa 3,8°C 0,0km/h (0Bft) 0,0km/h 0,0l/m² 0,000klx 0,0min
04:50 3,8°C 74,4% -0,4°C 1024,1hPa 3,8°C 0,0km/h (0Bft) 0,0km/h 0,0l/m² 0,000klx 0,0min
04:45 3,7°C 74,2% -0,4°C 1024,0hPa 3,7°C 0,0km/h (0Bft) 0,0km/h 0,0l/m² 0,000klx 0,0min
04:40 3,7°C 74,5% -0,4°C 1024,1hPa 3,7°C 0,0km/h (0Bft) 0,0km/h 0,0l/m² 0,000klx 0,0min
04:35 3,7°C 74,7% -0,3°C 1024,0hPa 3,7°C 0,0km/h (0Bft) 0,0km/h 0,0l/m² 0,000klx 0,0min
04:30 3,7°C 74,8% -0,3°C 1024,1hPa 3,7°C 0,0km/h (0Bft) 0,0km/h 0,0l/m² 0,000klx 0,0min
04:25 3,8°C 74,9% -0,3°C 1024,1hPa 3,8°C 0,0km/h (0Bft) 0,0km/h 0,0l/m² 0,000klx 0,0min
04:20 3,8°C 74,6% -0,3°C 1024,1hPa 3,8°C 0,0km/h (0Bft) 0,0km/h 0,0l/m² 0,000klx 0,0min
04:15 3,8°C 74,5% -0,3°C 1024,1hPa 3,8°C 0,0km/h (0Bft) 0,0km/h 0,0l/m² 0,000klx 0,0min
04:10 3,8°C 74,1% -0,4°C 1024,2hPa 3,8°C 0,0km/h (0Bft) 0,0km/h 0,0l/m² 0,000klx 0,0min
04:05 3,8°C 74,1% -0,4°C 1024,2hPa 3,8°C 0,0km/h (0Bft) 0,0km/h 0,0l/m² 0,000klx 0,0min
04:00 3,8°C 74,2% -0,4°C 1024,2hPa 3,8°C 0,0km/h (0Bft) 0,0km/h 0,0l/m² 0,000klx 0,0min
03:55 3,8°C 74,8% -0,3°C 1024,3hPa 3,8°C 0,0km/h (0Bft) 0,0km/h 0,0l/m² 0,000klx 0,0min
03:50 3,7°C 75,4% -0,2°C 1024,3hPa 3,7°C 0,0km/h (0Bft) 0,0km/h 0,0l/m² 0,000klx 0,0min
03:45 3,7°C 75,7% -0,2°C 1024,3hPa 3,7°C 0,0km/h (0Bft) 0,0km/h 0,0l/m² 0,000klx 0,0min
03:40 3,6°C 75,8% -0,2°C 1024,4hPa 3,6°C 0,0km/h (0Bft) 0,0km/h 0,0l/m² 0,000klx 0,0min
03:35 3,6°C 76,0% -0,2°C 1024,4hPa 3,6°C 0,0km/h (0Bft) 0,0km/h 0,0l/m² 0,000klx 0,0min
03:30 3,6°C 76,2% -0,2°C 1024,5hPa 3,6°C 0,0km/h (0Bft) 0,0km/h 0,0l/m² 0,000klx 0,0min
03:25 3,6°C 76,5% -0,1°C 1024,5hPa 3,6°C 0,0km/h (0Bft) 0,0km/h 0,0l/m² 0,000klx 0,0min
03:20 3,7°C 76,5% 0,0°C 1024,5hPa 3,7°C 0,0km/h (0Bft) 0,0km/h 0,0l/m² 0,000klx 0,0min
03:15 3,8°C 76,0% 0,0°C 1024,6hPa 3,8°C 0,0km/h (0Bft) 0,0km/h 0,0l/m² 0,000klx 0,0min
03:10 3,9°C 75,6% 0,0°C 1024,6hPa 3,9°C 0,0km/h (0Bft) 0,0km/h 0,0l/m² 0,000klx 0,0min
03:05 4,0°C 75,3% 0,0°C 1024,6hPa 4,0°C 0,0km/h (0Bft) 0,0km/h 0,0l/m² 0,000klx 0,0min
03:00 4,0°C 75,1% 0,0°C 1024,6hPa 4,0°C 0,0km/h (0Bft) 0,0km/h 0,0l/m² 0,000klx 0,0min
01:55 4,1°C 74,5% 0,0°C 1024,7hPa 4,1°C 0,0km/h (0Bft) 0,0km/h 0,0l/m² 0,000klx 0,0min
01:50 4,2°C 73,9% 0,0°C 1024,7hPa 4,2°C 0,0km/h (0Bft) 0,0km/h 0,0l/m² 0,000klx 0,0min
01:45 4,3°C 73,1% -0,1°C 1024,7hPa 4,3°C 0,0km/h (0Bft) 0,0km/h 0,0l/m² 0,000klx 0,0min
01:40 4,5°C 72,2% -0,1°C 1024,7hPa 4,5°C 0,0km/h (0Bft) 0,0km/h 0,0l/m² 0,000klx 0,0min
01:35 4,6°C 71,7% -0,1°C 1024,8hPa 4,6°C 0,0km/h (0Bft) 0,0km/h 0,0l/m² 0,000klx 0,0min
01:30 4,7°C 70,9% -0,2°C 1024,8hPa 4,7°C 0,0km/h (0Bft) 0,0km/h 0,0l/m² 0,000klx 0,0min
01:25 4,8°C 70,0% -0,2°C 1024,8hPa 4,8°C 0,0km/h (0Bft) 0,0km/h 0,0l/m² 0,000klx 0,0min
01:20 4,9°C 69,7% -0,2°C 1024,8hPa 4,9°C 0,0km/h (0Bft) 0,0km/h 0,0l/m² 0,000klx 0,0min
01:15 5,0°C 69,5% -0,1°C 1024,9hPa 5,0°C 0,0km/h (0Bft) 0,0km/h 0,0l/m² 0,000klx 0,0min
01:10 5,1°C 69,6% 0,0°C 1024,9hPa 5,1°C 0,0km/h (0Bft) 0,0km/h 0,0l/m² 0,000klx 0,0min
01:05 5,2°C 70,6% 0,2°C 1024,9hPa 5,2°C 0,0km/h (0Bft) 0,0km/h 0,0l/m² 0,000klx 0,0min
01:00 5,2°C 70,6% 0,3°C 1024,9hPa 5,2°C 0,0km/h (0Bft) 0,0km/h 0,0l/m² 0,000klx 0,0min
00:55 5,2°C 70,3% 0,2°C 1024,8hPa 5,2°C 0,0km/h (0Bft) 0,0km/h 0,0l/m² 0,000klx 0,0min
00:50 5,2°C 70,6% 0,3°C 1024,8hPa 5,2°C 0,0km/h (0Bft) 0,0km/h 0,0l/m² 0,000klx 0,0min
00:45 5,2°C 71,0% 0,4°C 1024,8hPa 5,2°C 0,0km/h (0Bft) 0,0km/h 0,0l/m² 0,000klx 0,0min
00:40 5,3°C 70,5% 0,4°C 1024,8hPa 5,3°C 0,0km/h (0Bft) 0,0km/h 0,0l/m² 0,000klx 0,0min
00:35 5,4°C 70,0% 0,4°C 1024,9hPa 5,4°C 0,0km/h (0Bft) 0,0km/h 0,0l/m² 0,000klx 0,0min
00:30 5,5°C 69,7% 0,4°C 1024,8hPa 5,5°C 0,0km/h (0Bft) 0,0km/h 0,0l/m² 0,000klx 0,0min
00:25 5,6°C 69,3% 0,4°C 1024,8hPa 5,6°C 0,0km/h (0Bft) 0,0km/h 0,0l/m² 0,000klx 0,0min
00:20 5,6°C 69,3% 0,4°C 1024,8hPa 5,6°C 0,0km/h (0Bft) 0,0km/h 0,0l/m² 0,000klx 0,0min
00:15 5,6°C 69,0% 0,4°C 1024,7hPa 5,6°C 0,0km/h (0Bft) 0,0km/h 0,0l/m² 0,000klx 0,0min
00:10 5,7°C 68,7% 0,4°C 1024,7hPa 5,7°C 0,0km/h (0Bft) 0,0km/h 0,0l/m² 0,000klx 0,0min
00:05 5,8°C 68,9% 0,5°C 1024,7hPa 5,8°C 0,0km/h (0Bft) 0,0km/h 0,0l/m² 0,000klx 0,0min
00:00 5,8°C 69,3% 0,6°C 1024,7hPa 5,8°C 0,0km/h (0Bft) 0,0km/h 0,0l/m² 0,000klx 0,0min

Aktuelle Wetterdaten

29.03.2020 23:35 Uhr